Terminal Aerodrome Forecast
Issued by NWS

Home | Current Version | Previous Version | Text Only | Print | Product List | Glossary On
Versions: 1 2 3 4 5 6 7 8 9 10 11 12 13 14 15 16 17
000
FTUS45 KVEF 221729
TAFVGT
TAF
KVGT 221729Z 2218/2318 15010KT P6SM FEW070 SCT120 BKN200
     FM222100 22011G17KT P6SM VCSH FEW070 SCT120 BKN200
     FM230100 32011G17KT P6SM SCT070 BKN120
     FM230300 VRB06KT P6SM FEW070 BKN110
     FM231600 14006KT P6SM BKN090=

USA.gov is the U.S. government's official web portal to all federal, state and local government web resources and services.